Pagrindinis puslapis
METAR-TAF:

METAR-TAF

Oro uostai :

Esmeraldasas, Ekvadoras

platuma: 00-58-43N, ilguma: 079-37-36W, Aukštis: 10 m

Dabartinis oras

Ataskaita buvo paskelbta 14 minutes, ne 11:00 UTC
Vėjas 6 kt iš Šiaurės/Šiaurės Vakarų
Temperatūra 25°C
Drėgmė 100%
Slėgis 1013 hPa
Matomumas 10 km arba daugiau
Mažai debesys ne aukštis 1000 ft
Išsisklaidę debesys ne aukštis 2600 ft
Apsiniaukę ne aukštis 10000 ft

METAR: SETN 281100Z 34006KT 9999 FEW010 SCT026 OVC100 25/25 Q1012 A2990

Laikas: 06:14 (11:14 UTC)


TAF: trūkstamas

Orai ataskaitas ir orų prognozės (METAR, TAF).

turimą stotys yra geltonos ir raudonos taškus žemėlapyje.

Perkelti pele per norėdami pamatyti stoties vardą.

Tada spustelėkite, norėdami matyti oro stebėjimo ir prognozės.

Norėdami pakeisti žemėlapį: spustelėkite ant žalios mygtukų su juodo kryžiaus žemyn,; žalią mygtuką su brūkšneliu, jei norite nutolinti; arba žalių rodyklių gretimoms žemėlapius.


METAR-TAF: